Diamond Ocean — VRMF8 — position and weather

sailwx.info

Track history (hours):
 
Tides and Currents Weather Stations Pressure Air Temp Water Temp Dewpoint Dewpoint Depression Visibility Wind Speed Wind Dir Waves Ship Positions

Diamond Ocean

Last reported at 2017-Oct-23 10:48 UTC. Time now 2017-Dec-15 20:05 UTC.
Position N 25°23' W 079°35'.
Warning: this ship's position is 53 days out of date.

Length 228 m; draft 7.5 m.

Type: Cargo ship. MMSI: 477942600.

Date/timePositionNaut miles runAvg speedWind from/ knotsBaromVisibWave heightAir tempDewpointWater temp
2017-Oct-23 10:48N 25°23' W 079°35'511.7
2017-Oct-23 10:23N 25°28' W 079°34'411.5
2017-Oct-23 10:01N 25°32' W 079°33'611.3
2017-Oct-23 09:31N 25°37' W 079°32'611.3
2017-Oct-23 09:01N 25°43' W 079°31'611.3
2017-Oct-23 08:30N 25°49' W 079°30'611.1
2017-Oct-23 08:00N 25°54' W 079°29'511.0
2017-Oct-23 07:31N 25°60' W 079°28'611.3
2017-Oct-23 07:01N 26°05' W 079°26'911.8
2017-Oct-23 06:14N 26°12' W 079°19'  
Track history (hours):
 
Tides and Currents Weather Stations Pressure Air Temp Water Temp Dewpoint Dewpoint Depression Visibility Wind Speed Wind Dir Waves Ship Positions

Diamond Ocean

Last reported at 2017-Oct-23 10:48 UTC. Time now 2017-Dec-15 20:05 UTC.
Position N 25°23' W 079°35'.
Warning: this ship's position is 53 days out of date.

Length 228 m; draft 7.5 m.

Type: Cargo ship. MMSI: 477942600.

Date/timePositionNaut miles runAvg speedWind from/ knotsBaromVisibWave heightAir tempDewpointWater temp
2017-Oct-23 10:48N 25°23' W 079°35'511.7
2017-Oct-23 10:23N 25°28' W 079°34'411.5
2017-Oct-23 10:01N 25°32' W 079°33'611.3
2017-Oct-23 09:31N 25°37' W 079°32'611.3
2017-Oct-23 09:01N 25°43' W 079°31'611.3
2017-Oct-23 08:30N 25°49' W 079°30'611.1
2017-Oct-23 08:00N 25°54' W 079°29'511.0
2017-Oct-23 07:31N 25°60' W 079°28'611.3
2017-Oct-23 07:01N 26°05' W 079°26'911.8
2017-Oct-23 06:14N 26°12' W 079°19'  

Dump ship's entire track history